Time;durP1;ratioP1;P1;durP2;ratioP2;P2;SDS_P1;SDS_P2;PMS_P1;PMS_P2;Temp;Humidity;BMP_temperature;BMP_pressure;BME280_temperature;BME280_humidity;BME280_pressure;Samples;Min_cycle;Max_cycle;Signal;HPM_P1;HPM_P2
2022/09/30 00:02:14;;;;;;;9.00;6.15;;;;;;;;;;5030260;28;20028;-69
2022/09/30 00:04:39;;;;;;;10.70;6.30;;;;;;;;;;5016589;28;20130;-67
2022/09/30 00:07:04;;;;;;;12.95;5.72;;;;;;;;;;5033877;28;20072;-66
2022/09/30 00:09:29;;;;;;;11.88;6.68;;;;;;;;;;5032758;28;20425;-72
2022/09/30 00:11:54;;;;;;;13.02;6.10;;;;;;;;;;5028682;28;20100;-67
2022/09/30 00:14:21;;;;;;;16.03;6.40;;;;;;;;;;5028864;28;20116;-68
2022/09/30 00:16:46;;;;;;;12.68;6.32;;;;;;;;;;5027798;28;20276;-71
2022/09/30 00:19:12;;;;;;;14.43;6.35;;;;;;;;;;5035001;28;20053;-66
2022/09/30 00:21:37;;;;;;;17.30;6.47;;;;;;;;;;5035592;28;20028;-67
2022/09/30 00:24:03;;;;;;;11.18;6.20;;;;;;;;;;5027795;28;20101;-67
2022/09/30 00:26:28;;;;;;;13.70;6.38;;;;;;;;;;5028973;28;20025;-69
2022/09/30 00:28:55;;;;;;;16.88;6.53;;;;;;;;;;5029057;28;20028;-68
2022/09/30 00:31:21;;;;;;;11.30;5.68;;;;;;;;;;5039240;28;20333;-67
2022/09/30 00:34:05;;;;;;;18.20;7.22;;;;;;;;;;5024398;28;20021;-71
2022/09/30 00:36:32;;;;;;;11.00;6.07;;;;;;;;;;5021417;28;20021;-71
2022/09/30 00:38:57;;;;;;;9.88;5.70;;;;;;;;;;5022330;28;20056;-67
2022/09/30 00:41:22;;;;;;;11.37;6.00;;;;;;;;;;5021740;28;20112;-72
2022/09/30 00:43:52;;;;;;;11.45;7.30;;;;;;;;;;5023435;28;20283;-67
2022/09/30 00:46:32;;;;;;;15.97;6.40;;;;;;;;;;5026360;28;20370;-68
2022/09/30 00:48:57;;;;;;;;;;;;;;;;;;5026920;28;20514;-67
2022/09/30 00:51:27;;;;;;;14.88;6.15;;;;;;;;;;5024294;28;20339;-68
2022/09/30 00:54:18;;;;;;;10.05;5.72;;;;;;;;;;5026764;28;20029;-67
2022/09/30 00:56:50;;;;;;;11.88;5.40;;;;;;;;;;5020168;28;20033;-72
2022/09/30 00:59:17;;;;;;;8.95;5.70;;;;;;;;;;5025415;28;20033;-68
2022/09/30 01:01:43;;;;;;;17.80;6.30;;;;;;;;;;5026353;28;20469;-67
2022/09/30 01:04:19;;;;;;;16.88;6.22;;;;;;;;;;5025621;28;20135;-67
2022/09/30 01:06:45;;;;;;;13.48;6.18;;;;;;;;;;5030595;28;20021;-69
2022/09/30 01:09:11;;;;;;;12.23;6.03;;;;;;;;;;5038300;28;20036;-68
2022/09/30 01:11:36;;;;;;;13.60;5.63;;;;;;;;;;5033787;28;20017;-67
2022/09/30 01:14:04;;;;;;;12.13;5.30;;;;;;;;;;5027111;28;20382;-67
2022/09/30 01:16:29;;;;;;;14.35;6.05;;;;;;;;;;5035407;28;20029;-67
2022/09/30 01:19:03;;;;;;;9.80;5.75;;;;;;;;;;5028297;28;20032;-68
2022/09/30 01:21:34;;;;;;;11.77;5.80;;;;;;;;;;5025937;28;20557;-68
2022/09/30 01:24:09;;;;;;;11.40;5.35;;;;;;;;;;5028868;28;20021;-68
2022/09/30 01:26:58;;;;;;;11.02;5.22;;;;;;;;;;5039347;28;20393;-69
2022/09/30 01:29:35;;;;;;;12.70;5.78;;;;;;;;;;5034565;28;20546;-67
2022/09/30 01:32:01;;;;;;;11.18;5.28;;;;;;;;;;5033284;28;20056;-68
2022/09/30 01:34:45;;;;;;;12.57;5.38;;;;;;;;;;5029750;28;20473;-67
2022/09/30 01:37:23;;;;;;;11.30;5.93;;;;;;;;;;5033408;28;20060;-68
2022/09/30 01:39:48;;;;;;;12.20;4.80;;;;;;;;;;5031064;28;20079;-67
2022/09/30 01:42:16;;;;;;;10.52;5.13;;;;;;;;;;5029946;28;20417;-71
2022/09/30 01:44:41;;;;;;;12.80;5.18;;;;;;;;;;5030932;28;20272;-68
2022/09/30 01:47:25;;;;;;;10.27;5.60;;;;;;;;;;5032962;28;20025;-67
2022/09/30 01:49:56;;;;;;;12.68;4.68;;;;;;;;;;5028097;28;20272;-67
2022/09/30 01:52:36;;;;;;;7.40;4.35;;;;;;;;;;5030500;28;20025;-69
2022/09/30 01:55:01;;;;;;;;;;;;;;;;;;5033397;28;20021;-68
2022/09/30 01:57:29;;;;;;;8.90;5.28;;;;;;;;;;5031674;28;19909;-67
2022/09/30 02:00:20;;;;;;;12.63;5.75;;;;;;;;;;5029721;28;20026;-69
2022/09/30 02:02:48;;;;;;;15.75;5.30;;;;;;;;;;5021690;28;20033;-71
2022/09/30 02:05:30;;;;;;;19.73;5.57;;;;;;;;;;5032995;28;20025;-67
2022/09/30 02:08:01;;;;;;;9.77;5.15;;;;;;;;;;5037166;28;20029;-68
2022/09/30 02:10:30;;;;;;;8.30;5.00;;;;;;;;;;5038945;28;20028;-67
2022/09/30 02:12:58;;;;;;;9.52;4.43;;;;;;;;;;5027856;28;20036;-69
2022/09/30 02:15:25;;;;;;;8.98;4.40;;;;;;;;;;5031181;28;20425;-67
2022/09/30 02:18:14;;;;;;;8.32;4.72;;;;;;;;;;5029534;28;20348;-67
2022/09/30 02:20:40;;;;;;;13.10;5.10;;;;;;;;;;5020016;28;20065;-67
2022/09/30 02:23:11;;;;;;;13.82;5.25;;;;;;;;;;5026697;28;21518;-67
2022/09/30 02:25:41;;;;;;;12.68;5.03;;;;;;;;;;5028411;28;20403;-68
2022/09/30 02:28:09;;;;;;;9.57;5.57;;;;;;;;;;5028229;28;20063;-69
2022/09/30 02:30:36;;;;;;;9.38;5.43;;;;;;;;;;5012194;28;20429;-67
2022/09/30 02:33:08;;;;;;;9.80;5.40;;;;;;;;;;5036257;28;20164;-70
2022/09/30 02:35:45;;;;;;;14.73;5.55;;;;;;;;;;5024433;28;20030;-68
2022/09/30 02:38:16;;;;;;;14.45;5.25;;;;;;;;;;5023692;28;20071;-67
2022/09/30 02:40:48;;;;;;;9.98;5.25;;;;;;;;;;5024337;28;20049;-69
2022/09/30 02:43:14;;;;;;;19.70;5.95;;;;;;;;;;5022199;28;20405;-68
2022/09/30 02:45:58;;;;;;;12.70;4.90;;;;;;;;;;5025073;28;20034;-67
2022/09/30 02:48:37;;;;;;;14.55;6.10;;;;;;;;;;5022045;28;20067;-71
2022/09/30 02:51:10;;;;;;;12.82;7.43;;;;;;;;;;5036860;28;20390;-68
2022/09/30 02:53:50;;;;;;;15.23;5.82;;;;;;;;;;5027236;28;20037;-67
2022/09/30 02:56:18;;;;;;;18.90;5.00;;;;;;;;;;5025739;28;20485;-68
2022/09/30 02:58:44;;;;;;;11.38;5.20;;;;;;;;;;5022270;28;20025;-69
2022/09/30 03:01:11;;;;;;;21.95;6.35;;;;;;;;;;5023018;28;20056;-70
2022/09/30 03:03:47;;;;;;;10.90;4.88;;;;;;;;;;5021294;28;20022;-67
2022/09/30 03:06:13;;;;;;;15.63;6.18;;;;;;;;;;5038610;28;20041;-67
2022/09/30 03:08:38;;;;;;;11.45;4.82;;;;;;;;;;5031249;28;20060;-69
2022/09/30 03:11:04;;;;;;;8.48;5.10;;;;;;;;;;5028416;28;20033;-67
2022/09/30 03:13:38;;;;;;;11.38;4.68;;;;;;;;;;5028951;28;20034;-67
2022/09/30 03:16:17;;;;;;;7.35;4.53;;;;;;;;;;5038314;28;20040;-68
2022/09/30 03:18:50;;;;;;;8.88;4.53;;;;;;;;;;5031855;28;20457;-68
2022/09/30 03:21:23;;;;;;;6.15;4.03;;;;;;;;;;5034060;28;20116;-67
2022/09/30 03:23:57;;;;;;;7.45;4.65;;;;;;;;;;5026876;28;20037;-68
2022/09/30 03:26:32;;;;;;;13.88;6.25;;;;;;;;;;5022248;28;20490;-68
2022/09/30 03:28:57;;;;;;;7.45;4.38;;;;;;;;;;5031152;28;20028;-67
2022/09/30 03:31:31;;;;;;;8.27;4.70;;;;;;;;;;5034111;28;20013;-67
2022/09/30 03:34:12;;;;;;;12.57;5.38;;;;;;;;;;5035948;28;20056;-69
2022/09/30 03:36:40;;;;;;;14.43;6.43;;;;;;;;;;5034215;28;20075;-67
2022/09/30 03:39:14;;;;;;;13.23;5.80;;;;;;;;;;5026458;28;20018;-67
2022/09/30 03:41:45;;;;;;;9.05;4.68;;;;;;;;;;5030952;28;20397;-68
2022/09/30 03:44:21;;;;;;;10.55;5.30;;;;;;;;;;5037270;28;20025;-70
2022/09/30 03:46:58;;;;;;;10.60;5.18;;;;;;;;;;5026911;28;20112;-72
2022/09/30 03:49:29;;;;;;;14.43;5.50;;;;;;;;;;5024067;28;20131;-67
2022/09/30 03:51:55;;;;;;;10.55;5.35;;;;;;;;;;5029615;28;20527;-67
2022/09/30 03:54:21;;;;;;;12.90;5.72;;;;;;;;;;5022287;28;20116;-67
2022/09/30 03:56:47;;;;;;;14.65;5.35;;;;;;;;;;5027272;28;20025;-68
2022/09/30 03:59:18;;;;;;;9.40;6.45;;;;;;;;;;5025904;28;20024;-67
2022/09/30 04:01:44;;;;;;;12.02;5.38;;;;;;;;;;5027598;28;20526;-69
2022/09/30 04:04:09;;;;;;;11.38;4.90;;;;;;;;;;5039448;28;20040;-67
2022/09/30 04:06:34;;;;;;;10.47;4.80;;;;;;;;;;5032429;28;20475;-68
2022/09/30 04:08:59;;;;;;;9.90;5.07;;;;;;;;;;5021069;28;20752;-67
2022/09/30 04:11:24;;;;;;;8.45;5.38;;;;;;;;;;5027123;28;20287;-68
2022/09/30 04:13:50;;;;;;;8.50;4.82;;;;;;;;;;5029837;28;20490;-67
2022/09/30 04:16:15;;;;;;;14.45;5.63;;;;;;;;;;5030977;28;20021;-68
2022/09/30 04:18:41;;;;;;;11.88;4.97;;;;;;;;;;5025341;28;20437;-69
2022/09/30 04:21:10;;;;;;;12.20;4.97;;;;;;;;;;5029500;28;20040;-67
2022/09/30 04:23:37;;;;;;;15.02;5.22;;;;;;;;;;5024400;28;20027;-68
2022/09/30 04:26:02;;;;;;;13.98;5.65;;;;;;;;;;5025114;28;20386;-67
2022/09/30 04:28:27;;;;;;;8.65;5.13;;;;;;;;;;5029097;28;20014;-70
2022/09/30 04:30:53;;;;;;;11.95;5.70;;;;;;;;;;5025278;28;20068;-68
2022/09/30 04:33:18;;;;;;;13.75;6.07;;;;;;;;;;5031044;28;20561;-68
2022/09/30 04:35:43;;;;;;;17.17;5.60;;;;;;;;;;5027525;28;20051;-70
2022/09/30 04:38:08;;;;;;;16.50;5.38;;;;;;;;;;5022458;28;20620;-68
2022/09/30 04:40:37;;;;;;;18.05;5.43;;;;;;;;;;5022575;28;20071;-69
2022/09/30 04:43:02;;;;;;;10.43;5.35;;;;;;;;;;5022031;28;20386;-67
2022/09/30 04:45:28;;;;;;;14.65;5.82;;;;;;;;;;5021912;28;20116;-67
2022/09/30 04:47:54;;;;;;;8.75;5.47;;;;;;;;;;5019149;28;20026;-68
2022/09/30 04:50:19;;;;;;;8.80;5.88;;;;;;;;;;5020740;28;20018;-67
2022/09/30 04:52:44;;;;;;;10.20;5.50;;;;;;;;;;5021117;28;20072;-67
2022/09/30 04:55:10;;;;;;;10.70;6.97;;;;;;;;;;5020384;28;20025;-70
2022/09/30 04:57:35;;;;;;;12.43;6.57;;;;;;;;;;5027248;28;20743;-67
2022/09/30 05:00:00;;;;;;;15.48;5.70;;;;;;;;;;5020523;28;20536;-68
2022/09/30 05:02:26;;;;;;;11.10;6.05;;;;;;;;;;5021322;28;20064;-70
2022/09/30 05:04:51;;;;;;;11.83;5.80;;;;;;;;;;5020277;28;20025;-67
2022/09/30 05:07:16;;;;;;;19.67;7.50;;;;;;;;;;5028119;28;20264;-67
2022/09/30 05:09:41;;;;;;;19.17;5.88;;;;;;;;;;5023707;28;20113;-68
2022/09/30 05:12:07;;;;;;;12.65;6.32;;;;;;;;;;5055738;22;20380;-67
2022/09/30 05:14:32;;;;;;;14.07;6.57;;;;;;;;;;5050693;28;20392;-66
2022/09/30 05:16:57;;;;;;;10.60;5.60;;;;;;;;;;5049230;28;20044;-67
2022/09/30 05:19:22;;;;;;;15.40;6.15;;;;;;;;;;5045894;28;20288;-66
2022/09/30 05:21:47;;;;;;;9.55;5.88;;;;;;;;;;5046301;28;20043;-66
2022/09/30 05:24:13;;;;;;;13.87;5.40;;;;;;;;;;5050234;28;20141;-66
2022/09/30 05:26:39;;;;;;;12.75;5.80;;;;;;;;;;5047619;28;20796;-66
2022/09/30 05:29:04;;;;;;;10.00;6.10;;;;;;;;;;5047659;28;20031;-66
2022/09/30 05:31:29;;;;;;;9.30;6.30;;;;;;;;;;5052400;28;20020;-66
2022/09/30 05:33:54;;;;;;;9.47;5.67;;;;;;;;;;5050573;28;20072;-67
2022/09/30 05:36:20;;;;;;;19.17;6.33;;;;;;;;;;5050738;28;20279;-66
2022/09/30 05:38:45;;;;;;;16.60;6.60;;;;;;;;;;5046282;28;20363;-66
2022/09/30 05:41:13;;;;;;;20.17;6.18;;;;;;;;;;5057351;28;20072;-66
2022/09/30 05:43:39;;;;;;;13.25;5.88;;;;;;;;;;5064361;28;20024;-66
2022/09/30 05:46:05;;;;;;;12.63;6.60;;;;;;;;;;5056817;28;20029;-66
2022/09/30 05:48:31;;;;;;;18.67;6.30;;;;;;;;;;5052066;28;20058;-66
2022/09/30 05:50:57;;;;;;;11.18;6.53;;;;;;;;;;5054937;28;20408;-66
2022/09/30 05:53:22;;;;;;;15.93;7.13;;;;;;;;;;5049432;28;20063;-66
2022/09/30 05:55:48;;;;;;;11.68;5.90;;;;;;;;;;5048313;28;20025;-66
2022/09/30 05:58:14;;;;;;;23.17;7.93;;;;;;;;;;5040714;28;20152;-66
2022/09/30 06:00:40;;;;;;;14.77;8.10;;;;;;;;;;5042401;28;20021;-66
2022/09/30 06:03:05;;;;;;;14.05;6.88;;;;;;;;;;5046125;28;20039;-66
2022/09/30 06:05:31;;;;;;;14.18;6.85;;;;;;;;;;5040514;28;20448;-66
2022/09/30 06:07:56;;;;;;;15.93;6.60;;;;;;;;;;5047082;28;20423;-66
2022/09/30 06:10:22;;;;;;;13.93;6.75;;;;;;;;;;5045787;28;20321;-66
2022/09/30 06:12:48;;;;;;;12.80;6.20;;;;;;;;;;5047776;28;20032;-66
2022/09/30 06:15:13;;;;;;;17.77;6.43;;;;;;;;;;5053590;28;20028;-67
2022/09/30 06:17:41;;;;;;;12.77;6.78;;;;;;;;;;5049265;28;20099;-67
2022/09/30 06:20:07;;;;;;;13.35;6.57;;;;;;;;;;5037101;28;20036;-67
2022/09/30 06:22:34;;;;;;;12.88;6.40;;;;;;;;;;5047500;28;20029;-67
2022/09/30 06:24:59;;;;;;;13.13;6.18;;;;;;;;;;5046167;28;20100;-67
2022/09/30 06:27:25;;;;;;;13.40;6.67;;;;;;;;;;5051541;28;20442;-67
2022/09/30 06:29:50;;;;;;;13.02;6.22;;;;;;;;;;5044223;28;20284;-68
2022/09/30 06:32:16;;;;;;;11.48;6.00;;;;;;;;;;5059411;28;20105;-67
2022/09/30 06:34:41;;;;;;;17.90;6.25;;;;;;;;;;5047423;28;20040;-67
2022/09/30 06:37:06;;;;;;;14.95;6.30;;;;;;;;;;5042344;28;20101;-67
2022/09/30 06:39:31;;;;;;;18.97;6.60;;;;;;;;;;5039746;28;20397;-67
2022/09/30 06:41:56;;;;;;;11.93;6.40;;;;;;;;;;5040939;28;20279;-67
2022/09/30 06:44:22;;;;;;;8.50;5.53;;;;;;;;;;5042538;28;21016;-67
2022/09/30 06:46:47;;;;;;;15.90;6.57;;;;;;;;;;5041659;28;20028;-67
2022/09/30 06:49:12;;;;;;;15.43;6.10;;;;;;;;;;5049483;28;20271;-67
2022/09/30 06:51:37;;;;;;;12.68;6.50;;;;;;;;;;5047910;28;20020;-67
2022/09/30 06:54:02;;;;;;;9.73;6.47;;;;;;;;;;5043065;28;20141;-67
2022/09/30 06:56:27;;;;;;;14.02;6.03;;;;;;;;;;5054590;28;20029;-67
2022/09/30 06:58:55;;;;;;;11.27;5.13;;;;;;;;;;5047916;28;20108;-67
2022/09/30 07:01:21;;;;;;;8.77;5.18;;;;;;;;;;5045895;28;20276;-68
2022/09/30 07:03:46;;;;;;;13.48;4.47;;;;;;;;;;5045240;28;20114;-68
2022/09/30 07:06:12;;;;;;;11.27;4.88;;;;;;;;;;5046569;28;20021;-68
2022/09/30 07:08:37;;;;;;;10.70;4.15;;;;;;;;;;5045298;28;20107;-68
2022/09/30 07:11:07;;;;;;;6.28;3.92;;;;;;;;;;5027374;28;20101;-68
2022/09/30 07:13:32;;;;;;;10.03;4.20;;;;;;;;;;5045736;28;20044;-69
2022/09/30 07:15:57;;;;;;;9.80;4.80;;;;;;;;;;5047068;28;20025;-68
2022/09/30 07:18:23;;;;;;;6.43;4.13;;;;;;;;;;5047692;28;20036;-68
2022/09/30 07:20:49;;;;;;;7.28;4.55;;;;;;;;;;5046683;28;20055;-70
2022/09/30 07:23:14;;;;;;;9.52;4.05;;;;;;;;;;5044611;28;20429;-68
2022/09/30 07:25:39;;;;;;;8.98;4.15;;;;;;;;;;5052253;28;20112;-68
2022/09/30 07:28:04;;;;;;;7.40;3.93;;;;;;;;;;5049899;28;20029;-68
2022/09/30 07:30:30;;;;;;;7.13;4.13;;;;;;;;;;5046058;28;20293;-68
2022/09/30 07:32:55;;;;;;;6.10;4.30;;;;;;;;;;5048644;28;20318;-68
2022/09/30 07:35:20;;;;;;;7.40;4.43;;;;;;;;;;5042100;28;20020;-68
2022/09/30 07:37:45;;;;;;;9.05;4.45;;;;;;;;;;5025683;28;20044;-68
2022/09/30 07:40:10;;;;;;;7.33;4.27;;;;;;;;;;5049697;28;20032;-68
2022/09/30 07:42:36;;;;;;;11.27;4.17;;;;;;;;;;5047969;28;20345;-68
2022/09/30 07:45:02;;;;;;;8.70;4.45;;;;;;;;;;5046051;28;20063;-68
2022/09/30 07:47:27;;;;;;;5.65;3.38;;;;;;;;;;5046551;28;20059;-68
2022/09/30 07:49:52;;;;;;;7.18;3.90;;;;;;;;;;5045954;28;20546;-68
2022/09/30 07:52:17;;;;;;;7.55;3.55;;;;;;;;;;5046411;28;20013;-69
2022/09/30 07:54:43;;;;;;;6.57;3.67;;;;;;;;;;5044803;28;20523;-69
2022/09/30 07:57:08;;;;;;;5.93;3.42;;;;;;;;;;5041981;28;20025;-68
2022/09/30 07:59:35;;;;;;;7.18;3.95;;;;;;;;;;5048044;28;20021;-69
2022/09/30 08:02:01;;;;;;;8.38;3.58;;;;;;;;;;5047625;28;20026;-69
2022/09/30 08:04:26;;;;;;;7.35;3.80;;;;;;;;;;5048180;28;20047;-69
2022/09/30 08:06:59;;;;;;;5.88;3.00;;;;;;;;;;5048558;28;20021;-69
2022/09/30 08:09:25;;;;;;;6.47;3.38;;;;;;;;;;5041939;28;20032;-69
2022/09/30 08:11:50;;;;;;;5.70;4.13;;;;;;;;;;5044392;28;20390;-69
2022/09/30 08:14:17;;;;;;;5.45;3.00;;;;;;;;;;5052484;28;20035;-69
2022/09/30 08:16:43;;;;;;;10.43;4.30;;;;;;;;;;5047985;28;20036;-69
2022/09/30 08:19:12;;;;;;;5.38;3.50;;;;;;;;;;5046951;28;20090;-69
2022/09/30 08:21:37;;;;;;;6.50;3.90;;;;;;;;;;5044789;28;20114;-69
2022/09/30 08:24:02;;;;;;;5.77;4.10;;;;;;;;;;5050204;28;20025;-69
2022/09/30 08:26:28;;;;;;;6.45;3.90;;;;;;;;;;5044913;28;20272;-69
2022/09/30 08:28:53;;;;;;;5.13;3.58;;;;;;;;;;5049824;28;20051;-69
2022/09/30 08:31:21;;;;;;;8.52;4.25;;;;;;;;;;5046758;28;20021;-69
2022/09/30 08:33:46;;;;;;;11.43;3.88;;;;;;;;;;5048939;28;20539;-69
2022/09/30 08:36:13;;;;;;;5.82;3.72;;;;;;;;;;5044013;28;20033;-69
2022/09/30 08:38:38;;;;;;;10.50;3.85;;;;;;;;;;5048789;28;20013;-69
2022/09/30 08:41:09;;;;;;;7.00;3.95;;;;;;;;;;5048640;28;20071;-69
2022/09/30 08:43:43;;;;;;;6.05;4.03;;;;;;;;;;5048895;28;20036;-68
2022/09/30 08:46:35;;;;;;;11.68;4.25;;;;;;;;;;5045429;28;20057;-68
2022/09/30 08:49:01;;;;;;;6.63;3.67;;;;;;;;;;5047676;28;20040;-68
2022/09/30 08:51:32;;;;;;;5.18;3.42;;;;;;;;;;5046994;28;20021;-69
2022/09/30 08:53:59;;;;;;;11.73;3.50;;;;;;;;;;5047086;28;20017;-68
2022/09/30 08:56:26;;;;;;;6.15;3.97;;;;;;;;;;5049492;28;20013;-68
2022/09/30 08:58:54;;;;;;;6.38;4.57;;;;;;;;;;5048162;28;20075;-68
2022/09/30 09:01:27;;;;;;;10.15;3.47;;;;;;;;;;5050173;28;20054;-69
2022/09/30 09:03:53;;;;;;;7.50;3.78;;;;;;;;;;5054342;28;20017;-68
2022/09/30 09:06:20;;;;;;;9.40;4.72;;;;;;;;;;5051659;28;20492;-68
2022/09/30 09:08:52;;;;;;;5.80;3.33;;;;;;;;;;5052728;28;20545;-68
2022/09/30 09:11:19;;;;;;;10.32;4.65;;;;;;;;;;5050108;28;20092;-68
2022/09/30 09:13:50;;;;;;;8.52;3.55;;;;;;;;;;5049704;28;20112;-74
2022/09/30 09:16:34;;;;;;;5.70;3.45;;;;;;;;;;5050523;28;20056;-68
2022/09/30 09:19:04;;;;;;;8.23;3.55;;;;;;;;;;5051217;28;20083;-68
2022/09/30 09:21:34;;;;;;;6.60;3.33;;;;;;;;;;5049461;28;20024;-68
2022/09/30 09:24:00;;;;;;;7.15;3.28;;;;;;;;;;5050911;28;20029;-68
2022/09/30 09:26:28;;;;;;;5.00;3.42;;;;;;;;;;5048339;28;20016;-68
2022/09/30 09:29:14;;;;;;;9.90;3.75;;;;;;;;;;5050897;28;20423;-68
2022/09/30 09:31:39;;;;;;;19.55;4.50;;;;;;;;;;5031055;28;20104;-68
2022/09/30 09:34:11;;;;;;;5.93;3.15;;;;;;;;;;5050984;28;20117;-68
2022/09/30 09:36:36;;;;;;;6.60;2.95;;;;;;;;;;5049803;28;20025;-68
2022/09/30 09:39:10;;;;;;;8.03;3.40;;;;;;;;;;5051202;28;20017;-68
2022/09/30 09:41:54;;;;;;;7.15;3.58;;;;;;;;;;5050971;28;20294;-68
2022/09/30 09:44:40;;;;;;;8.60;3.38;;;;;;;;;;5052295;28;20431;-68
2022/09/30 09:47:14;;;;;;;9.15;3.10;;;;;;;;;;5051282;28;20056;-68
2022/09/30 09:49:44;;;;;;;6.05;3.55;;;;;;;;;;5050861;28;20421;-68
2022/09/30 09:52:11;;;;;;;6.60;3.20;;;;;;;;;;5050394;28;20032;-68
2022/09/30 09:54:41;;;;;;;6.38;3.50;;;;;;;;;;5051599;28;20108;-68
2022/09/30 09:57:09;;;;;;;6.17;3.03;;;;;;;;;;5049749;28;20780;-68
2022/09/30 09:59:35;;;;;;;9.93;3.50;;;;;;;;;;5050176;28;20302;-68
2022/09/30 10:02:01;;;;;;;9.20;2.88;;;;;;;;;;5047062;28;20043;-68
2022/09/30 10:04:31;;;;;;;7.13;3.55;;;;;;;;;;5051590;28;20031;-68
2022/09/30 10:06:58;;;;;;;7.78;3.55;;;;;;;;;;5034656;28;20017;-68
2022/09/30 10:09:30;;;;;;;7.22;3.15;;;;;;;;;;5049665;28;20138;-68
2022/09/30 10:12:04;;;;;;;17.40;3.80;;;;;;;;;;5049483;28;20047;-68
2022/09/30 10:14:29;;;;;;;8.48;3.78;;;;;;;;;;5051163;28;20049;-68
2022/09/30 10:16:57;;;;;;;8.75;3.60;;;;;;;;;;5050024;28;20426;-69
2022/09/30 10:19:25;;;;;;;5.85;3.30;;;;;;;;;;5055281;28;20021;-68
2022/09/30 10:21:53;;;;;;;8.43;3.10;;;;;;;;;;5050634;28;20025;-68
2022/09/30 10:24:25;;;;;;;6.88;3.60;;;;;;;;;;5049405;28;20106;-68
2022/09/30 10:26:50;;;;;;;7.75;3.10;;;;;;;;;;5050733;28;20021;-69
2022/09/30 10:29:42;;;;;;;14.23;5.40;;;;;;;;;;5050024;28;20534;-68
2022/09/30 10:32:08;;;;;;;8.20;4.50;;;;;;;;;;5044842;28;21407;-69
2022/09/30 10:34:38;;;;;;;7.57;3.83;;;;;;;;;;5053871;28;20059;-69
2022/09/30 10:37:19;;;;;;;7.28;3.05;;;;;;;;;;5062355;28;20408;-68
2022/09/30 10:39:50;;;;;;;13.23;4.20;;;;;;;;;;5059884;28;20071;-68
2022/09/30 10:42:20;;;;;;;9.15;4.00;;;;;;;;;;5052516;28;20712;-68
2022/09/30 10:44:48;;;;;;;14.27;4.10;;;;;;;;;;5048990;28;20025;-68
2022/09/30 10:47:14;;;;;;;9.57;4.20;;;;;;;;;;5049709;28;20103;-68
2022/09/30 10:49:52;;;;;;;7.00;3.55;;;;;;;;;;5047743;28;20021;-69
2022/09/30 10:52:19;;;;;;;9.00;3.65;;;;;;;;;;5051651;28;20082;-69
2022/09/30 10:54:50;;;;;;;10.60;4.43;;;;;;;;;;5050895;28;20071;-69
2022/09/30 10:57:23;;;;;;;8.80;4.28;;;;;;;;;;5050666;28;20036;-68
2022/09/30 10:59:50;;;;;;;12.15;4.00;;;;;;;;;;5053058;28;20047;-68
2022/09/30 11:02:34;;;;;;;7.38;3.58;;;;;;;;;;5049425;28;20024;-68
2022/09/30 11:05:14;;;;;;;10.98;3.63;;;;;;;;;;5048657;28;20505;-68
2022/09/30 11:07:39;;;;;;;;;;;;;;;;;;5048264;28;20035;-68
2022/09/30 11:10:28;;;;;;;13.25;5.50;;;;;;;;;;5052441;28;19913;-68
2022/09/30 11:13:13;;;;;;;12.27;4.80;;;;;;;;;;5054011;28;20040;-68
2022/09/30 11:15:44;;;;;;;8.45;4.82;;;;;;;;;;5003447;28;20554;-68
2022/09/30 11:18:14;;;;;;;9.43;4.15;;;;;;;;;;5047972;28;20041;-68
2022/09/30 11:20:47;;;;;;;14.35;5.18;;;;;;;;;;5048494;28;20029;-68
2022/09/30 11:23:25;;;;;;;9.13;4.30;;;;;;;;;;5049328;28;20064;-68
2022/09/30 11:25:50;;;;;;;8.82;4.00;;;;;;;;;;5047686;28;20025;-69
2022/09/30 11:28:27;;;;;;;10.23;3.97;;;;;;;;;;5049451;28;20020;-68
2022/09/30 11:30:55;;;;;;;7.50;3.80;;;;;;;;;;5047915;28;20071;-71
2022/09/30 11:33:39;;;;;;;9.57;3.47;;;;;;;;;;5049954;28;20457;-68
2022/09/30 11:36:16;;;;;;;8.85;3.60;;;;;;;;;;5030519;28;20124;-68
2022/09/30 11:38:41;;;;;;;6.60;3.30;;;;;;;;;;5048661;28;20052;-69
2022/09/30 11:41:32;;;;;;;5.43;3.53;;;;;;;;;;5050068;28;20094;-68
2022/09/30 11:44:21;;;;;;;8.88;3.13;;;;;;;;;;5044963;28;20279;-65
2022/09/30 11:46:58;;;;;;;6.65;3.15;;;;;;;;;;5049120;28;20108;-68
2022/09/30 11:49:29;;;;;;;8.60;3.25;;;;;;;;;;5050023;28;20469;-69
2022/09/30 11:52:03;;;;;;;8.35;3.70;;;;;;;;;;5047583;28;20029;-67
2022/09/30 11:54:31;;;;;;;10.60;5.15;;;;;;;;;;5046334;28;20079;-68
2022/09/30 11:57:01;;;;;;;4.47;2.58;;;;;;;;;;5049014;28;20458;-68
2022/09/30 11:59:29;;;;;;;7.95;4.78;;;;;;;;;;5047924;28;20017;-67
2022/09/30 12:01:57;;;;;;;9.07;2.55;;;;;;;;;;5047897;28;20397;-68
2022/09/30 12:04:38;;;;;;;17.98;4.97;;;;;;;;;;5043129;28;20013;-66
2022/09/30 12:07:23;;;;;;;9.73;4.80;;;;;;;;;;5048607;28;20025;-68
2022/09/30 12:09:55;;;;;;;11.60;4.72;;;;;;;;;;5048338;28;20028;-67
2022/09/30 12:12:21;;;;;;;9.70;4.95;;;;;;;;;;5056187;28;20020;-68
2022/09/30 12:14:48;;;;;;;6.50;3.92;;;;;;;;;;5046268;28;20032;-68
2022/09/30 12:17:19;;;;;;;6.80;3.17;;;;;;;;;;5047104;28;20054;-68
2022/09/30 12:19:47;;;;;;;12.10;4.93;;;;;;;;;;5047149;28;20029;-67
2022/09/30 12:22:15;;;;;;;8.50;4.15;;;;;;;;;;5042213;28;20489;-68
2022/09/30 12:24:44;;;;;;;11.70;4.63;;;;;;;;;;5039243;28;20029;-65
2022/09/30 12:27:29;;;;;;;9.48;3.33;;;;;;;;;;5040798;28;20144;-65
2022/09/30 12:32:44;;;;;;;8.40;3.40;;;;;;;;;;5042919;28;20099;-70
2022/09/30 12:35:28;;;;;;;6.97;3.65;;;;;;;;;;5046963;28;20493;-69
2022/09/30 12:38:05;;;;;;;6.18;3.30;;;;;;;;;;5047835;28;20025;-70
2022/09/30 12:40:49;;;;;;;10.25;3.08;;;;;;;;;;5044551;28;20021;-67
2022/09/30 12:43:29;;;;;;;2.90;1.73;;;;;;;;;;5053393;28;20058;-69
2022/09/30 12:46:00;;;;;;;6.18;2.97;;;;;;;;;;5051653;28;20119;-68
2022/09/30 12:48:27;;;;;;;10.38;3.20;;;;;;;;;;5054599;28;20059;-69
2022/09/30 12:50:56;;;;;;;9.00;3.35;;;;;;;;;;5046068;28;20029;-68
2022/09/30 12:53:24;;;;;;;3.72;2.40;;;;;;;;;;5052642;28;20100;-70
2022/09/30 12:55:50;;;;;;;5.38;3.22;;;;;;;;;;5055620;28;20021;-70
2022/09/30 12:58:29;;;;;;;18.05;3.40;;;;;;;;;;5053873;28;20021;-69
2022/09/30 13:00:59;;;;;;;4.40;2.42;;;;;;;;;;5055250;28;20100;-69
2022/09/30 13:03:25;;;;;;;5.53;2.42;;;;;;;;;;5051803;28;20020;-70
2022/09/30 13:05:55;;;;;;;7.55;4.35;;;;;;;;;;5030874;28;20486;-70
2022/09/30 13:08:20;;;;;;;;;;;;;;;;;;5054582;28;20029;-69
2022/09/30 13:10:47;;;;;;;7.68;2.90;;;;;;;;;;5056785;28;19916;-69
2022/09/30 13:13:12;;;;;;;7.00;2.72;;;;;;;;;;5050587;28;20120;-67
2022/09/30 13:15:38;;;;;;;4.68;2.47;;;;;;;;;;5055792;28;20092;-67
2022/09/30 13:18:18;;;;;;;12.60;2.47;;;;;;;;;;5055764;28;20119;-69
2022/09/30 13:20:51;;;;;;;5.55;2.20;;;;;;;;;;5060410;28;20491;-69
2022/09/30 13:23:35;;;;;;;6.18;2.20;;;;;;;;;;5057777;28;20021;-67
2022/09/30 13:26:01;;;;;;;3.17;1.70;;;;;;;;;;5056805;28;20016;-67
2022/09/30 13:28:28;;;;;;;5.22;2.15;;;;;;;;;;5056973;28;20173;-70
2022/09/30 13:31:19;;;;;;;6.30;1.63;;;;;;;;;;5056869;28;20428;-68
2022/09/30 13:33:44;;;;;;;;;;;;;;;;;;5053445;28;20354;-68
2022/09/30 13:36:17;;;;;;;4.15;1.67;;;;;;;;;;5063626;28;19919;-68
2022/09/30 13:38:42;;;;;;;2.50;1.23;;;;;;;;;;5076206;28;20043;-69
2022/09/30 13:41:18;;;;;;;4.78;1.98;;;;;;;;;;5073288;28;20020;-69
2022/09/30 13:43:49;;;;;;;5.20;1.38;;;;;;;;;;5075506;28;20036;-69
2022/09/30 13:46:23;;;;;;;4.80;1.65;;;;;;;;;;5063323;28;20020;-69
2022/09/30 13:48:55;;;;;;;4.65;1.60;;;;;;;;;;5051693;28;20021;-68
2022/09/30 13:51:23;;;;;;;1.45;0.90;;;;;;;;;;5047659;28;20021;-66
2022/09/30 13:53:50;;;;;;;2.95;1.08;;;;;;;;;;5051675;28;20611;-68
2022/09/30 13:56:20;;;;;;;8.45;4.32;;;;;;;;;;5057777;28;20491;-69
2022/09/30 13:59:05;;;;;;;4.00;1.23;;;;;;;;;;5053764;28;20021;-68
2022/09/30 14:01:42;;;;;;;3.53;0.98;;;;;;;;;;5050328;28;20537;-69
2022/09/30 14:04:10;;;;;;;0.15;0.15;;;;;;;;;;5053444;28;20013;-69
2022/09/30 14:06:56;;;;;;;2.75;0.60;;;;;;;;;;5051456;28;20423;-69
2022/09/30 14:09:33;;;;;;;4.38;1.33;;;;;;;;;;5011384;28;20151;-67
2022/09/30 14:11:58;;;;;;;4.25;1.05;;;;;;;;;;5052171;28;20020;-69
2022/09/30 14:14:38;;;;;;;6.13;0.90;;;;;;;;;;5053319;28;20093;-68
2022/09/30 14:17:13;;;;;;;6.22;0.95;;;;;;;;;;5048361;28;20029;-67
2022/09/30 14:19:41;;;;;;;4.28;0.82;;;;;;;;;;5060233;28;20024;-70
2022/09/30 14:22:07;;;;;;;0.88;0.50;;;;;;;;;;5053572;28;20029;-68
2022/09/30 14:24:34;;;;;;;2.22;0.98;;;;;;;;;;5057024;28;20515;-69
2022/09/30 14:27:18;;;;;;;4.72;0.80;;;;;;;;;;5051974;28;20029;-69
2022/09/30 14:29:46;;;;;;;3.85;1.00;;;;;;;;;;5051831;28;20052;-69
2022/09/30 14:32:13;;;;;;;1.52;0.65;;;;;;;;;;5052675;28;20020;-69
2022/09/30 14:34:39;;;;;;;10.45;1.67;;;;;;;;;;5049978;28;20421;-69
2022/09/30 14:37:04;;;;;;;2.80;0.85;;;;;;;;;;5052378;28;20060;-66
2022/09/30 14:39:30;;;;;;;3.70;0.88;;;;;;;;;;5063835;28;20028;-68
2022/09/30 14:42:00;;;;;;;1.63;0.80;;;;;;;;;;5053064;28;20032;-68
2022/09/30 14:44:27;;;;;;;1.67;0.80;;;;;;;;;;5055136;28;20473;-68
2022/09/30 14:46:59;;;;;;;2.22;0.90;;;;;;;;;;5050825;28;20060;-69
2022/09/30 14:49:31;;;;;;;2.13;0.85;;;;;;;;;;5047183;28;20021;-69
2022/09/30 14:51:58;;;;;;;5.05;1.33;;;;;;;;;;5050529;28;20035;-68
2022/09/30 14:54:27;;;;;;;3.40;1.10;;;;;;;;;;5053023;28;20025;-68
2022/09/30 14:56:55;;;;;;;3.67;1.38;;;;;;;;;;5055278;28;20049;-67